sensor_id;sensor_type;location;lat;lon;timestamp;temperature;humidity
29803;DHT22;16702;50.898;4.662;2023-09-19T00:00:58;18.10;99.90
29803;DHT22;16702;50.898;4.662;2023-09-19T00:03:29;18.10;99.90
29803;DHT22;16702;50.898;4.662;2023-09-19T00:06:00;18.10;99.90
29803;DHT22;16702;50.898;4.662;2023-09-19T00:08:32;18.00;99.90
29803;DHT22;16702;50.898;4.662;2023-09-19T00:11:05;18.00;99.90
29803;DHT22;16702;50.898;4.662;2023-09-19T00:13:38;18.00;99.90
29803;DHT22;16702;50.898;4.662;2023-09-19T00:16:09;18.00;99.90
29803;DHT22;16702;50.898;4.662;2023-09-19T00:18:42;18.00;99.90
29803;DHT22;16702;50.898;4.662;2023-09-19T00:21:12;18.00;99.90
29803;DHT22;16702;50.898;4.662;2023-09-19T00:23:43;17.90;99.90
29803;DHT22;16702;50.898;4.662;2023-09-19T00:26:16;17.90;99.90
29803;DHT22;16702;50.898;4.662;2023-09-19T00:28:52;17.90;99.90
29803;DHT22;16702;50.898;4.662;2023-09-19T00:31:24;17.90;99.90
29803;DHT22;16702;50.898;4.662;2023-09-19T00:33:57;17.90;99.90
29803;DHT22;16702;50.898;4.662;2023-09-19T00:36:34;17.90;99.90
29803;DHT22;16702;50.898;4.662;2023-09-19T00:39:06;17.90;99.90
29803;DHT22;16702;50.898;4.662;2023-09-19T00:41:41;17.90;99.90
29803;DHT22;16702;50.898;4.662;2023-09-19T00:44:12;17.90;99.90
29803;DHT22;16702;50.898;4.662;2023-09-19T00:46:43;17.90;99.90
29803;DHT22;16702;50.898;4.662;2023-09-19T00:49:17;17.90;99.90
29803;DHT22;16702;50.898;4.662;2023-09-19T00:51:50;17.90;99.90
29803;DHT22;16702;50.898;4.662;2023-09-19T00:54:20;17.80;99.90
29803;DHT22;16702;50.898;4.662;2023-09-19T00:56:53;17.80;99.90
29803;DHT22;16702;50.898;4.662;2023-09-19T00:59:24;17.80;99.90
29803;DHT22;16702;50.898;4.662;2023-09-19T01:01:55;17.80;99.90
29803;DHT22;16702;50.898;4.662;2023-09-19T01:04:27;17.90;99.90
29803;DHT22;16702;50.898;4.662;2023-09-19T01:06:58;17.80;99.90
29803;DHT22;16702;50.898;4.662;2023-09-19T01:09:29;17.80;99.90
29803;DHT22;16702;50.898;4.662;2023-09-19T01:12:06;17.80;99.90
29803;DHT22;16702;50.898;4.662;2023-09-19T01:14:42;17.70;99.90
29803;DHT22;16702;50.898;4.662;2023-09-19T01:17:23;17.80;99.90
29803;DHT22;16702;50.898;4.662;2023-09-19T01:20:20;17.70;99.90
29803;DHT22;16702;50.898;4.662;2023-09-19T01:23:01;17.80;99.90
29803;DHT22;16702;50.898;4.662;2023-09-19T01:25:50;17.80;99.90
29803;DHT22;16702;50.898;4.662;2023-09-19T01:28:30;17.70;99.90
29803;DHT22;16702;50.898;4.662;2023-09-19T01:31:10;17.70;99.90
29803;DHT22;16702;50.898;4.662;2023-09-19T01:33:55;17.70;99.90
29803;DHT22;16702;50.898;4.662;2023-09-19T01:36:29;17.70;99.90
29803;DHT22;16702;50.898;4.662;2023-09-19T01:39:03;17.60;99.90
29803;DHT22;16702;50.898;4.662;2023-09-19T01:41:54;17.70;99.90
29803;DHT22;16702;50.898;4.662;2023-09-19T01:44:36;17.60;99.90
29803;DHT22;16702;50.898;4.662;2023-09-19T01:47:17;17.60;99.90
29803;DHT22;16702;50.898;4.662;2023-09-19T01:49:55;17.60;99.90
29803;DHT22;16702;50.898;4.662;2023-09-19T01:52:32;17.60;99.90
29803;DHT22;16702;50.898;4.662;2023-09-19T01:55:09;17.60;99.90
29803;DHT22;16702;50.898;4.662;2023-09-19T01:57:48;17.60;99.90
29803;DHT22;16702;50.898;4.662;2023-09-19T02:00:22;17.50;99.90
29803;DHT22;16702;50.898;4.662;2023-09-19T02:02:57;17.60;99.90
29803;DHT22;16702;50.898;4.662;2023-09-19T02:05:29;17.60;99.90
29803;DHT22;16702;50.898;4.662;2023-09-19T02:08:00;17.60;99.90
29803;DHT22;16702;50.898;4.662;2023-09-19T02:10:31;17.60;99.90
29803;DHT22;16702;50.898;4.662;2023-09-19T02:13:02;17.50;99.90
29803;DHT22;16702;50.898;4.662;2023-09-19T02:15:34;17.50;99.90
29803;DHT22;16702;50.898;4.662;2023-09-19T02:18:08;17.50;99.90
29803;DHT22;16702;50.898;4.662;2023-09-19T02:20:39;17.50;99.90
29803;DHT22;16702;50.898;4.662;2023-09-19T02:23:10;17.40;99.90
29803;DHT22;16702;50.898;4.662;2023-09-19T02:25:41;17.50;99.90
29803;DHT22;16702;50.898;4.662;2023-09-19T02:28:12;17.50;99.90
29803;DHT22;16702;50.898;4.662;2023-09-19T02:30:42;17.30;99.90
29803;DHT22;16702;50.898;4.662;2023-09-19T02:33:18;17.30;99.90
29803;DHT22;16702;50.898;4.662;2023-09-19T02:35:55;17.30;99.90
29803;DHT22;16702;50.898;4.662;2023-09-19T02:38:28;17.30;99.90
29803;DHT22;16702;50.898;4.662;2023-09-19T02:40:59;17.30;99.90
29803;DHT22;16702;50.898;4.662;2023-09-19T02:43:30;17.40;99.90
29803;DHT22;16702;50.898;4.662;2023-09-19T02:46:02;17.40;99.90
29803;DHT22;16702;50.898;4.662;2023-09-19T02:48:36;17.40;99.90
29803;DHT22;16702;50.898;4.662;2023-09-19T02:51:06;17.40;99.90
29803;DHT22;16702;50.898;4.662;2023-09-19T02:53:37;17.40;99.90
29803;DHT22;16702;50.898;4.662;2023-09-19T02:56:09;17.30;99.90
29803;DHT22;16702;50.898;4.662;2023-09-19T02:58:41;17.30;99.90
29803;DHT22;16702;50.898;4.662;2023-09-19T03:01:12;17.40;99.90
29803;DHT22;16702;50.898;4.662;2023-09-19T03:03:46;17.30;99.90
29803;DHT22;16702;50.898;4.662;2023-09-19T03:06:17;17.30;99.90
29803;DHT22;16702;50.898;4.662;2023-09-19T03:08:48;17.40;99.90
29803;DHT22;16702;50.898;4.662;2023-09-19T03:11:21;17.40;99.90
29803;DHT22;16702;50.898;4.662;2023-09-19T03:13:56;17.40;99.90
29803;DHT22;16702;50.898;4.662;2023-09-19T03:16:27;17.30;99.90
29803;DHT22;16702;50.898;4.662;2023-09-19T03:19:02;17.30;99.90
29803;DHT22;16702;50.898;4.662;2023-09-19T03:21:33;17.20;99.90
29803;DHT22;16702;50.898;4.662;2023-09-19T03:24:04;17.30;99.90
29803;DHT22;16702;50.898;4.662;2023-09-19T03:26:35;17.30;99.90
29803;DHT22;16702;50.898;4.662;2023-09-19T03:29:05;17.20;99.90
29803;DHT22;16702;50.898;4.662;2023-09-19T03:31:38;17.20;99.90
29803;DHT22;16702;50.898;4.662;2023-09-19T03:34:11;17.20;99.90
29803;DHT22;16702;50.898;4.662;2023-09-19T03:36:42;17.20;99.90
29803;DHT22;16702;50.898;4.662;2023-09-19T03:39:13;17.20;99.90
29803;DHT22;16702;50.898;4.662;2023-09-19T03:41:45;17.30;99.90
29803;DHT22;16702;50.898;4.662;2023-09-19T03:44:15;17.20;99.90
29803;DHT22;16702;50.898;4.662;2023-09-19T03:46:46;17.20;99.90
29803;DHT22;16702;50.898;4.662;2023-09-19T03:49:19;17.20;99.90
29803;DHT22;16702;50.898;4.662;2023-09-19T03:51:50;17.20;99.90
29803;DHT22;16702;50.898;4.662;2023-09-19T03:54:20;17.30;99.90
29803;DHT22;16702;50.898;4.662;2023-09-19T03:56:51;17.20;99.90
29803;DHT22;16702;50.898;4.662;2023-09-19T03:59:22;17.20;99.90
29803;DHT22;16702;50.898;4.662;2023-09-19T04:01:52;17.10;99.90
29803;DHT22;16702;50.898;4.662;2023-09-19T04:04:27;17.10;99.90
29803;DHT22;16702;50.898;4.662;2023-09-19T04:06:59;17.10;99.90
29803;DHT22;16702;50.898;4.662;2023-09-19T04:09:30;17.10;99.90
29803;DHT22;16702;50.898;4.662;2023-09-19T04:12:00;17.10;99.90
29803;DHT22;16702;50.898;4.662;2023-09-19T04:14:32;17.10;99.90
29803;DHT22;16702;50.898;4.662;2023-09-19T04:17:03;17.10;99.90
29803;DHT22;16702;50.898;4.662;2023-09-19T04:19:40;17.10;99.90
29803;DHT22;16702;50.898;4.662;2023-09-19T04:22:13;17.10;99.90
29803;DHT22;16702;50.898;4.662;2023-09-19T04:24:43;17.00;99.90
29803;DHT22;16702;50.898;4.662;2023-09-19T04:27:14;17.00;99.90
29803;DHT22;16702;50.898;4.662;2023-09-19T04:29:46;17.10;99.90
29803;DHT22;16702;50.898;4.662;2023-09-19T04:32:18;17.00;99.90
29803;DHT22;16702;50.898;4.662;2023-09-19T04:34:51;17.10;99.90
29803;DHT22;16702;50.898;4.662;2023-09-19T04:37:22;17.00;99.90
29803;DHT22;16702;50.898;4.662;2023-09-19T04:39:52;16.90;99.90
29803;DHT22;16702;50.898;4.662;2023-09-19T04:42:23;17.00;99.90
29803;DHT22;16702;50.898;4.662;2023-09-19T04:44:54;17.00;99.90
29803;DHT22;16702;50.898;4.662;2023-09-19T04:47:27;16.90;99.90
29803;DHT22;16702;50.898;4.662;2023-09-19T04:50:00;16.80;99.90
29803;DHT22;16702;50.898;4.662;2023-09-19T04:52:31;16.90;99.90
29803;DHT22;16702;50.898;4.662;2023-09-19T04:55:03;16.90;99.90
29803;DHT22;16702;50.898;4.662;2023-09-19T04:57:33;16.90;99.90
29803;DHT22;16702;50.898;4.662;2023-09-19T05:00:05;16.80;99.90
29803;DHT22;16702;50.898;4.662;2023-09-19T05:02:40;16.80;99.90
29803;DHT22;16702;50.898;4.662;2023-09-19T05:05:13;16.80;99.90
29803;DHT22;16702;50.898;4.662;2023-09-19T05:07:45;16.80;99.90
29803;DHT22;16702;50.898;4.662;2023-09-19T05:10:16;16.70;99.90
29803;DHT22;16702;50.898;4.662;2023-09-19T05:12:46;16.80;99.90
29803;DHT22;16702;50.898;4.662;2023-09-19T05:15:19;16.70;99.90
29803;DHT22;16702;50.898;4.662;2023-09-19T05:17:50;16.70;99.90
29803;DHT22;16702;50.898;4.662;2023-09-19T05:20:27;16.70;99.90
29803;DHT22;16702;50.898;4.662;2023-09-19T05:23:01;16.70;99.90
29803;DHT22;16702;50.898;4.662;2023-09-19T05:25:36;16.60;99.90
29803;DHT22;16702;50.898;4.662;2023-09-19T05:28:08;16.70;99.90
29803;DHT22;16702;50.898;4.662;2023-09-19T05:30:42;16.60;99.90
29803;DHT22;16702;50.898;4.662;2023-09-19T05:33:15;16.50;99.90
29803;DHT22;16702;50.898;4.662;2023-09-19T05:35:48;16.50;99.90
29803;DHT22;16702;50.898;4.662;2023-09-19T05:38:19;16.60;99.90
29803;DHT22;16702;50.898;4.662;2023-09-19T05:40:50;16.50;99.90
29803;DHT22;16702;50.898;4.662;2023-09-19T05:43:21;16.50;99.90
29803;DHT22;16702;50.898;4.662;2023-09-19T05:45:52;16.50;99.90
29803;DHT22;16702;50.898;4.662;2023-09-19T05:48:24;16.50;99.90
29803;DHT22;16702;50.898;4.662;2023-09-19T05:50:57;16.50;99.90
29803;DHT22;16702;50.898;4.662;2023-09-19T05:53:28;16.50;99.90
29803;DHT22;16702;50.898;4.662;2023-09-19T05:55:59;16.40;99.90
29803;DHT22;16702;50.898;4.662;2023-09-19T05:58:30;16.50;99.90
29803;DHT22;16702;50.898;4.662;2023-09-19T06:01:00;16.40;99.90
29803;DHT22;16702;50.898;4.662;2023-09-19T06:03:31;16.50;99.90
29803;DHT22;16702;50.898;4.662;2023-09-19T06:06:05;16.40;99.90
29803;DHT22;16702;50.898;4.662;2023-09-19T06:08:36;16.40;99.90
29803;DHT22;16702;50.898;4.662;2023-09-19T06:11:07;16.40;99.90
29803;DHT22;16702;50.898;4.662;2023-09-19T06:13:38;16.40;99.90
29803;DHT22;16702;50.898;4.662;2023-09-19T06:16:12;16.40;99.90
29803;DHT22;16702;50.898;4.662;2023-09-19T06:18:42;16.50;99.90
29803;DHT22;16702;50.898;4.662;2023-09-19T06:21:15;16.40;99.90
29803;DHT22;16702;50.898;4.662;2023-09-19T06:23:46;16.40;99.90
29803;DHT22;16702;50.898;4.662;2023-09-19T06:26:16;16.40;99.90
29803;DHT22;16702;50.898;4.662;2023-09-19T06:28:47;16.40;99.90
29803;DHT22;16702;50.898;4.662;2023-09-19T06:31:18;16.40;99.90
29803;DHT22;16702;50.898;4.662;2023-09-19T06:33:50;16.40;99.90
29803;DHT22;16702;50.898;4.662;2023-09-19T06:36:23;16.40;99.90
29803;DHT22;16702;50.898;4.662;2023-09-19T06:38:54;16.30;99.90
29803;DHT22;16702;50.898;4.662;2023-09-19T06:41:24;16.40;99.90
29803;DHT22;16702;50.898;4.662;2023-09-19T06:43:55;16.40;99.90
29803;DHT22;16702;50.898;4.662;2023-09-19T06:46:26;16.50;99.90
29803;DHT22;16702;50.898;4.662;2023-09-19T06:49:00;16.50;99.90
29803;DHT22;16702;50.898;4.662;2023-09-19T06:51:36;16.40;99.90
29803;DHT22;16702;50.898;4.662;2023-09-19T06:54:06;16.50;99.90
29803;DHT22;16702;50.898;4.662;2023-09-19T06:56:37;16.50;99.90
29803;DHT22;16702;50.898;4.662;2023-09-19T06:59:09;16.50;99.90
29803;DHT22;16702;50.898;4.662;2023-09-19T07:01:41;16.50;99.90
29803;DHT22;16702;50.898;4.662;2023-09-19T07:04:12;16.60;99.90
29803;DHT22;16702;50.898;4.662;2023-09-19T07:06:49;16.60;99.90
29803;DHT22;16702;50.898;4.662;2023-09-19T07:09:20;16.60;99.90
29803;DHT22;16702;50.898;4.662;2023-09-19T07:11:51;16.60;99.90
29803;DHT22;16702;50.898;4.662;2023-09-19T07:14:21;16.60;99.90
29803;DHT22;16702;50.898;4.662;2023-09-19T07:16:52;16.60;99.90
29803;DHT22;16702;50.898;4.662;2023-09-19T07:19:22;16.60;99.90
29803;DHT22;16702;50.898;4.662;2023-09-19T07:21:58;16.60;99.90
29803;DHT22;16702;50.898;4.662;2023-09-19T07:24:30;16.60;99.90
29803;DHT22;16702;50.898;4.662;2023-09-19T07:27:00;16.70;99.90
29803;DHT22;16702;50.898;4.662;2023-09-19T07:29:32;16.70;99.90
29803;DHT22;16702;50.898;4.662;2023-09-19T07:32:04;16.70;99.90
29803;DHT22;16702;50.898;4.662;2023-09-19T07:34:35;16.80;99.90
29803;DHT22;16702;50.898;4.662;2023-09-19T07:37:09;16.80;99.90
29803;DHT22;16702;50.898;4.662;2023-09-19T07:39:40;16.90;99.90
29803;DHT22;16702;50.898;4.662;2023-09-19T07:42:12;16.90;99.90
29803;DHT22;16702;50.898;4.662;2023-09-19T07:44:45;16.90;99.90
29803;DHT22;16702;50.898;4.662;2023-09-19T07:47:18;16.90;99.90
29803;DHT22;16702;50.898;4.662;2023-09-19T07:49:48;16.90;99.90
29803;DHT22;16702;50.898;4.662;2023-09-19T07:52:22;16.90;99.90
29803;DHT22;16702;50.898;4.662;2023-09-19T07:54:52;16.90;99.90
29803;DHT22;16702;50.898;4.662;2023-09-19T07:57:25;16.90;99.90
29803;DHT22;16702;50.898;4.662;2023-09-19T07:59:56;16.90;99.90
29803;DHT22;16702;50.898;4.662;2023-09-19T08:02:38;17.00;99.90
29803;DHT22;16702;50.898;4.662;2023-09-19T08:05:09;17.10;99.90
29803;DHT22;16702;50.898;4.662;2023-09-19T08:07:46;17.10;99.90
29803;DHT22;16702;50.898;4.662;2023-09-19T08:10:17;17.10;99.90
29803;DHT22;16702;50.898;4.662;2023-09-19T08:12:49;17.10;99.90
29803;DHT22;16702;50.898;4.662;2023-09-19T08:15:23;17.10;99.90
29803;DHT22;16702;50.898;4.662;2023-09-19T08:17:54;17.20;99.90
29803;DHT22;16702;50.898;4.662;2023-09-19T08:20:25;17.20;99.90
29803;DHT22;16702;50.898;4.662;2023-09-19T08:22:58;17.20;99.90
29803;DHT22;16702;50.898;4.662;2023-09-19T08:25:29;17.20;99.90
29803;DHT22;16702;50.898;4.662;2023-09-19T08:28:00;17.20;99.90
29803;DHT22;16702;50.898;4.662;2023-09-19T08:30:35;17.20;99.90
29803;DHT22;16702;50.898;4.662;2023-09-19T08:33:08;17.30;99.90
29803;DHT22;16702;50.898;4.662;2023-09-19T08:35:38;17.30;99.90
29803;DHT22;16702;50.898;4.662;2023-09-19T08:38:13;17.40;99.90
29803;DHT22;16702;50.898;4.662;2023-09-19T08:40:44;17.40;99.90
29803;DHT22;16702;50.898;4.662;2023-09-19T08:43:15;17.40;99.90
29803;DHT22;16702;50.898;4.662;2023-09-19T08:45:45;17.40;99.90
29803;DHT22;16702;50.898;4.662;2023-09-19T08:48:22;17.60;99.90
29803;DHT22;16702;50.898;4.662;2023-09-19T08:50:56;17.50;99.90
29803;DHT22;16702;50.898;4.662;2023-09-19T08:53:42;17.60;99.90
29803;DHT22;16702;50.898;4.662;2023-09-19T08:56:14;17.60;99.90
29803;DHT22;16702;50.898;4.662;2023-09-19T08:58:51;17.60;99.90
29803;DHT22;16702;50.898;4.662;2023-09-19T09:01:27;17.60;99.90
29803;DHT22;16702;50.898;4.662;2023-09-19T09:04:01;17.70;99.90
29803;DHT22;16702;50.898;4.662;2023-09-19T09:06:34;17.80;99.90
29803;DHT22;16702;50.898;4.662;2023-09-19T09:09:07;17.90;99.90
29803;DHT22;16702;50.898;4.662;2023-09-19T09:11:39;17.90;99.90
29803;DHT22;16702;50.898;4.662;2023-09-19T09:14:10;17.90;99.90
29803;DHT22;16702;50.898;4.662;2023-09-19T09:16:41;18.00;99.90
29803;DHT22;16702;50.898;4.662;2023-09-19T09:19:12;18.00;99.90
29803;DHT22;16702;50.898;4.662;2023-09-19T09:21:52;18.10;99.90
29803;DHT22;16702;50.898;4.662;2023-09-19T09:24:29;18.10;99.90
29803;DHT22;16702;50.898;4.662;2023-09-19T09:27:03;18.20;99.90
29803;DHT22;16702;50.898;4.662;2023-09-19T09:29:42;18.20;99.90
29803;DHT22;16702;50.898;4.662;2023-09-19T09:32:19;18.20;99.90
29803;DHT22;16702;50.898;4.662;2023-09-19T09:34:51;18.20;99.90
29803;DHT22;16702;50.898;4.662;2023-09-19T09:37:27;18.20;99.90
29803;DHT22;16702;50.898;4.662;2023-09-19T09:40:02;18.30;99.90
29803;DHT22;16702;50.898;4.662;2023-09-19T09:42:47;18.30;99.90
29803;DHT22;16702;50.898;4.662;2023-09-19T09:45:21;18.40;99.90
29803;DHT22;16702;50.898;4.662;2023-09-19T09:48:05;18.40;99.90
29803;DHT22;16702;50.898;4.662;2023-09-19T09:50:47;18.40;99.90
29803;DHT22;16702;50.898;4.662;2023-09-19T09:53:25;18.40;99.90
29803;DHT22;16702;50.898;4.662;2023-09-19T09:56:02;18.40;99.90
29803;DHT22;16702;50.898;4.662;2023-09-19T09:58:34;18.50;99.90
29803;DHT22;16702;50.898;4.662;2023-09-19T10:01:08;18.50;99.90
29803;DHT22;16702;50.898;4.662;2023-09-19T10:03:43;18.50;99.90
29803;DHT22;16702;50.898;4.662;2023-09-19T10:06:16;18.40;99.90
29803;DHT22;16702;50.898;4.662;2023-09-19T10:08:59;18.50;99.90
29803;DHT22;16702;50.898;4.662;2023-09-19T10:11:43;18.50;99.90
29803;DHT22;16702;50.898;4.662;2023-09-19T10:14:16;18.60;99.90
29803;DHT22;16702;50.898;4.662;2023-09-19T10:16:48;18.60;99.90
29803;DHT22;16702;50.898;4.662;2023-09-19T10:19:29;18.70;99.90
29803;DHT22;16702;50.898;4.662;2023-09-19T10:22:01;18.80;99.90
29803;DHT22;16702;50.898;4.662;2023-09-19T10:24:34;18.80;99.90
29803;DHT22;16702;50.898;4.662;2023-09-19T10:27:26;18.90;99.90
29803;DHT22;16702;50.898;4.662;2023-09-19T10:29:59;19.00;99.90
29803;DHT22;16702;50.898;4.662;2023-09-19T10:32:30;19.00;99.90
29803;DHT22;16702;50.898;4.662;2023-09-19T10:35:02;19.00;99.90
29803;DHT22;16702;50.898;4.662;2023-09-19T10:37:36;19.10;99.90
29803;DHT22;16702;50.898;4.662;2023-09-19T10:40:08;19.20;99.90
29803;DHT22;16702;50.898;4.662;2023-09-19T10:42:42;19.30;99.90
29803;DHT22;16702;50.898;4.662;2023-09-19T10:45:15;19.30;99.90
29803;DHT22;16702;50.898;4.662;2023-09-19T10:47:48;19.40;99.90
29803;DHT22;16702;50.898;4.662;2023-09-19T10:50:20;19.50;99.90
29803;DHT22;16702;50.898;4.662;2023-09-19T10:52:54;19.50;99.90
29803;DHT22;16702;50.898;4.662;2023-09-19T10:55:36;19.60;99.90
29803;DHT22;16702;50.898;4.662;2023-09-19T10:58:10;19.70;99.90
29803;DHT22;16702;50.898;4.662;2023-09-19T11:00:53;19.70;99.90
29803;DHT22;16702;50.898;4.662;2023-09-19T11:03:24;19.70;99.90
29803;DHT22;16702;50.898;4.662;2023-09-19T11:06:08;19.70;99.90
29803;DHT22;16702;50.898;4.662;2023-09-19T11:09:01;19.80;99.90
29803;DHT22;16702;50.898;4.662;2023-09-19T11:11:51;19.90;99.90
29803;DHT22;16702;50.898;4.662;2023-09-19T11:14:38;20.00;99.90
29803;DHT22;16702;50.898;4.662;2023-09-19T11:20:23;20.20;99.90
29803;DHT22;16702;50.898;4.662;2023-09-19T11:23:19;20.20;99.90
29803;DHT22;16702;50.898;4.662;2023-09-19T11:25:53;20.30;99.90
29803;DHT22;16702;50.898;4.662;2023-09-19T11:28:31;20.30;99.90
29803;DHT22;16702;50.898;4.662;2023-09-19T11:40:12;20.80;99.90
29803;DHT22;16702;50.898;4.662;2023-09-19T11:42:47;20.70;99.90
29803;DHT22;16702;50.898;4.662;2023-09-19T11:48:29;20.70;99.90
29803;DHT22;16702;50.898;4.662;2023-09-19T11:51:13;20.60;99.90
29803;DHT22;16702;50.898;4.662;2023-09-19T11:53:47;20.40;99.90
29803;DHT22;16702;50.898;4.662;2023-09-19T11:56:22;20.40;99.90
29803;DHT22;16702;50.898;4.662;2023-09-19T11:58:56;20.30;99.90
29803;DHT22;16702;50.898;4.662;2023-09-19T12:01:30;20.20;99.90
29803;DHT22;16702;50.898;4.662;2023-09-19T12:04:03;20.10;99.90
29803;DHT22;16702;50.898;4.662;2023-09-19T12:06:34;20.10;99.90
29803;DHT22;16702;50.898;4.662;2023-09-19T12:09:06;20.10;99.90
29803;DHT22;16702;50.898;4.662;2023-09-19T12:11:46;20.10;99.90
29803;DHT22;16702;50.898;4.662;2023-09-19T12:14:22;20.10;99.90
29803;DHT22;16702;50.898;4.662;2023-09-19T12:16:59;20.10;99.90
29803;DHT22;16702;50.898;4.662;2023-09-19T12:19:31;20.00;99.90
29803;DHT22;16702;50.898;4.662;2023-09-19T12:22:03;20.10;99.90
29803;DHT22;16702;50.898;4.662;2023-09-19T12:24:36;20.00;99.90
29803;DHT22;16702;50.898;4.662;2023-09-19T12:27:13;20.00;99.90
29803;DHT22;16702;50.898;4.662;2023-09-19T12:29:44;20.00;99.90
29803;DHT22;16702;50.898;4.662;2023-09-19T12:32:16;20.00;99.90
29803;DHT22;16702;50.898;4.662;2023-09-19T12:34:53;20.00;99.90
29803;DHT22;16702;50.898;4.662;2023-09-19T12:37:23;20.10;99.90
29803;DHT22;16702;50.898;4.662;2023-09-19T12:40:05;20.20;99.90
29803;DHT22;16702;50.898;4.662;2023-09-19T12:42:47;20.10;99.90
29803;DHT22;16702;50.898;4.662;2023-09-19T12:45:18;20.10;99.90
29803;DHT22;16702;50.898;4.662;2023-09-19T12:48:19;20.20;99.90
29803;DHT22;16702;50.898;4.662;2023-09-19T12:51:04;20.10;99.90
29803;DHT22;16702;50.898;4.662;2023-09-19T12:53:38;20.30;99.90
29803;DHT22;16702;50.898;4.662;2023-09-19T12:56:13;20.50;99.90
29803;DHT22;16702;50.898;4.662;2023-09-19T12:58:51;20.50;99.90
29803;DHT22;16702;50.898;4.662;2023-09-19T13:01:23;20.70;99.90
29803;DHT22;16702;50.898;4.662;2023-09-19T13:04:14;20.60;99.90
29803;DHT22;16702;50.898;4.662;2023-09-19T13:06:49;20.50;99.90
29803;DHT22;16702;50.898;4.662;2023-09-19T13:09:21;20.50;99.90
29803;DHT22;16702;50.898;4.662;2023-09-19T13:11:52;20.50;99.90
29803;DHT22;16702;50.898;4.662;2023-09-19T13:14:26;20.50;99.90
29803;DHT22;16702;50.898;4.662;2023-09-19T13:17:00;20.50;99.90
29803;DHT22;16702;50.898;4.662;2023-09-19T13:19:45;20.50;99.90
29803;DHT22;16702;50.898;4.662;2023-09-19T13:22:38;20.50;99.90
29803;DHT22;16702;50.898;4.662;2023-09-19T13:25:13;20.40;99.90
29803;DHT22;16702;50.898;4.662;2023-09-19T13:27:47;20.30;99.90
29803;DHT22;16702;50.898;4.662;2023-09-19T13:30:24;20.30;99.90
29803;DHT22;16702;50.898;4.662;2023-09-19T13:33:06;20.20;99.90
29803;DHT22;16702;50.898;4.662;2023-09-19T13:35:39;20.30;99.90
29803;DHT22;16702;50.898;4.662;2023-09-19T13:38:11;20.30;99.90
29803;DHT22;16702;50.898;4.662;2023-09-19T13:40:41;20.30;99.90
29803;DHT22;16702;50.898;4.662;2023-09-19T13:43:12;20.30;99.90
29803;DHT22;16702;50.898;4.662;2023-09-19T13:45:46;20.30;99.90
29803;DHT22;16702;50.898;4.662;2023-09-19T13:48:17;20.30;99.90
29803;DHT22;16702;50.898;4.662;2023-09-19T13:50:50;20.40;99.90
29803;DHT22;16702;50.898;4.662;2023-09-19T13:53:21;20.30;99.90
29803;DHT22;16702;50.898;4.662;2023-09-19T13:55:53;20.40;99.90
29803;DHT22;16702;50.898;4.662;2023-09-19T13:58:23;20.40;99.90
29803;DHT22;16702;50.898;4.662;2023-09-19T14:00:57;20.50;99.90
29803;DHT22;16702;50.898;4.662;2023-09-19T14:03:28;20.50;99.90
29803;DHT22;16702;50.898;4.662;2023-09-19T14:05:59;20.50;99.90
29803;DHT22;16702;50.898;4.662;2023-09-19T14:08:29;20.50;99.90
29803;DHT22;16702;50.898;4.662;2023-09-19T14:11:06;20.60;99.90
29803;DHT22;16702;50.898;4.662;2023-09-19T14:13:36;20.60;99.90
29803;DHT22;16702;50.898;4.662;2023-09-19T14:16:10;20.60;99.90
29803;DHT22;16702;50.898;4.662;2023-09-19T14:18:40;20.60;99.90
29803;DHT22;16702;50.898;4.662;2023-09-19T14:21:11;20.60;99.90
29803;DHT22;16702;50.898;4.662;2023-09-19T14:23:42;20.50;99.90
29803;DHT22;16702;50.898;4.662;2023-09-19T14:26:13;20.50;99.90
29803;DHT22;16702;50.898;4.662;2023-09-19T14:28:44;20.40;99.90
29803;DHT22;16702;50.898;4.662;2023-09-19T14:31:17;20.40;99.90
29803;DHT22;16702;50.898;4.662;2023-09-19T14:33:53;20.50;99.90
29803;DHT22;16702;50.898;4.662;2023-09-19T14:36:25;20.50;99.90
29803;DHT22;16702;50.898;4.662;2023-09-19T14:38:57;20.60;99.90
29803;DHT22;16702;50.898;4.662;2023-09-19T14:41:27;20.60;99.90
29803;DHT22;16702;50.898;4.662;2023-09-19T14:43:59;20.70;99.90
29803;DHT22;16702;50.898;4.662;2023-09-19T14:46:32;20.70;99.90
29803;DHT22;16702;50.898;4.662;2023-09-19T14:49:03;20.70;99.90
29803;DHT22;16702;50.898;4.662;2023-09-19T14:51:34;20.70;99.90
29803;DHT22;16702;50.898;4.662;2023-09-19T14:54:07;20.90;99.90
29803;DHT22;16702;50.898;4.662;2023-09-19T14:56:37;21.00;99.90
29803;DHT22;16702;50.898;4.662;2023-09-19T14:59:11;21.00;99.90
29803;DHT22;16702;50.898;4.662;2023-09-19T15:01:46;21.10;99.90
29803;DHT22;16702;50.898;4.662;2023-09-19T15:04:17;21.20;99.90
29803;DHT22;16702;50.898;4.662;2023-09-19T15:06:48;21.00;99.90
29803;DHT22;16702;50.898;4.662;2023-09-19T15:09:22;20.90;99.90
29803;DHT22;16702;50.898;4.662;2023-09-19T15:11:54;20.80;99.90
29803;DHT22;16702;50.898;4.662;2023-09-19T15:14:25;20.70;99.90
29803;DHT22;16702;50.898;4.662;2023-09-19T15:16:59;20.70;99.90
29803;DHT22;16702;50.898;4.662;2023-09-19T15:19:32;20.60;99.90
29803;DHT22;16702;50.898;4.662;2023-09-19T15:22:03;20.60;99.90
29803;DHT22;16702;50.898;4.662;2023-09-19T15:24:34;20.50;99.90
29803;DHT22;16702;50.898;4.662;2023-09-19T15:27:04;20.60;99.90
29803;DHT22;16702;50.898;4.662;2023-09-19T15:29:35;20.50;99.90
29803;DHT22;16702;50.898;4.662;2023-09-19T15:32:09;20.60;99.90
29803;DHT22;16702;50.898;4.662;2023-09-19T15:34:39;20.60;99.90
29803;DHT22;16702;50.898;4.662;2023-09-19T15:37:10;20.50;99.90
29803;DHT22;16702;50.898;4.662;2023-09-19T15:39:41;20.50;99.90
29803;DHT22;16702;50.898;4.662;2023-09-19T15:42:12;20.50;99.90
29803;DHT22;16702;50.898;4.662;2023-09-19T15:44:43;20.50;99.90
29803;DHT22;16702;50.898;4.662;2023-09-19T15:47:19;20.50;99.90
29803;DHT22;16702;50.898;4.662;2023-09-19T15:49:50;20.50;99.90
29803;DHT22;16702;50.898;4.662;2023-09-19T15:52:21;20.40;99.90
29803;DHT22;16702;50.898;4.662;2023-09-19T15:54:53;20.30;99.90
29803;DHT22;16702;50.898;4.662;2023-09-19T15:57:24;20.40;99.90
29803;DHT22;16702;50.898;4.662;2023-09-19T15:59:55;20.30;99.90
29803;DHT22;16702;50.898;4.662;2023-09-19T16:02:29;20.30;99.90
29803;DHT22;16702;50.898;4.662;2023-09-19T16:04:59;20.30;99.90
29803;DHT22;16702;50.898;4.662;2023-09-19T16:07:33;20.30;99.90
29803;DHT22;16702;50.898;4.662;2023-09-19T16:10:05;20.30;99.90
29803;DHT22;16702;50.898;4.662;2023-09-19T16:12:35;20.20;99.90
29803;DHT22;16702;50.898;4.662;2023-09-19T16:15:07;20.30;99.90
29803;DHT22;16702;50.898;4.662;2023-09-19T16:17:44;20.20;99.90
29803;DHT22;16702;50.898;4.662;2023-09-19T16:20:15;20.30;99.90
29803;DHT22;16702;50.898;4.662;2023-09-19T16:22:45;20.30;99.90
29803;DHT22;16702;50.898;4.662;2023-09-19T16:25:16;20.20;99.90